EZS51BG LFMN-LSGG
Flight info
| Callsign | EZS51BG |
|---|---|
| Flight time | 0h 41m |
| Altitude | 24000 |
| Route | IRMAR DCT KINES |
| Aircraft | A320/M-SDE2E3FGHIJ1RWXYZ/LB1 |
Departure
| Time | 2026-05-06 17:39 |
|---|---|
| Airport | Nice-Côte d'Azur Airport (LFMN) |
Arrival
| Time | 2026-05-06 18:20 |
|---|---|
| Airport | Geneva International Airport (LSGG) |
| Time | Latitude | Longitude | Altitude | Speed | Heading |
|---|---|---|---|---|---|
| 2026-05-06 16:38 | 43.66119 | 7.20684 | 21 ft | 0 kts | 261° |
| 2026-05-06 17:27 | 43.66122 | 7.20704 | 21 ft | 4 kts | 258° |
| 2026-05-06 17:27 | 43.66129 | 7.20739 | 22 ft | 4 kts | 248° |
| 2026-05-06 17:28 | 43.66142 | 7.20771 | 24 ft | 4 kts | 221° |
| 2026-05-06 17:28 | 43.66159 | 7.20782 | 22 ft | 1 kts | 170° |
| 2026-05-06 17:28 | 43.66164 | 7.20781 | 23 ft | 0 kts | 170° |
| 2026-05-06 17:31 | 43.66158 | 7.20782 | 24 ft | 2 kts | 171° |
| 2026-05-06 17:31 | 43.66138 | 7.20787 | 22 ft | 4 kts | 171° |
| 2026-05-06 17:31 | 43.66097 | 7.20796 | 21 ft | 7 kts | 172° |
| 2026-05-06 17:31 | 43.66069 | 7.20801 | 21 ft | 1 kts | 171° |
| 2026-05-06 17:32 | 43.66041 | 7.20808 | 21 ft | 7 kts | 171° |
| 2026-05-06 17:32 | 43.65983 | 7.20829 | 23 ft | 10 kts | 146° |
| 2026-05-06 17:32 | 43.65978 | 7.20922 | 23 ft | 11 kts | 53° |
| 2026-05-06 17:32 | 43.66024 | 7.20993 | 21 ft | 7 kts | 63° |
| 2026-05-06 17:33 | 43.66011 | 7.21050 | 23 ft | 6 kts | 136° |
| 2026-05-06 17:33 | 43.65978 | 7.21069 | 21 ft | 6 kts | 159° |
| 2026-05-06 17:33 | 43.65949 | 7.21113 | 21 ft | 7 kts | 95° |
| 2026-05-06 17:33 | 43.65980 | 7.21182 | 21 ft | 12 kts | 44° |
| 2026-05-06 17:34 | 43.66050 | 7.21279 | 21 ft | 16 kts | 45° |
| 2026-05-06 17:34 | 43.66133 | 7.21392 | 21 ft | 15 kts | 47° |
| 2026-05-06 17:34 | 43.66217 | 7.21506 | 21 ft | 18 kts | 45° |
| 2026-05-06 17:34 | 43.66315 | 7.21644 | 21 ft | 21 kts | 40° |
| 2026-05-06 17:35 | 43.66408 | 7.21769 | 21 ft | 17 kts | 45° |
| 2026-05-06 17:35 | 43.66487 | 7.21879 | 21 ft | 16 kts | 45° |
| 2026-05-06 17:35 | 43.66554 | 7.21981 | 21 ft | 11 kts | 68° |
| 2026-05-06 17:36 | 43.66473 | 7.22137 | 22 ft | 10 kts | 136° |
| 2026-05-06 17:36 | 43.66404 | 7.22227 | 22 ft | 20 kts | 137° |
| 2026-05-06 17:36 | 43.66401 | 7.22403 | 21 ft | 22 kts | 46° |
| 2026-05-06 17:36 | 43.66492 | 7.22526 | 22 ft | 15 kts | 45° |
| 2026-05-06 17:37 | 43.66564 | 7.22624 | 21 ft | 14 kts | 45° |
| 2026-05-06 17:37 | 43.66573 | 7.22731 | 22 ft | 11 kts | 130° |
| 2026-05-06 17:37 | 43.66513 | 7.22769 | 22 ft | 9 kts | 191° |
| 2026-05-06 17:37 | 43.66486 | 7.22739 | 22 ft | 0 kts | 225° |
| 2026-05-06 17:38 | 43.66475 | 7.22723 | 22 ft | 18 kts | 226° |
| 2026-05-06 17:38 | 43.66202 | 7.22345 | 24 ft | 89 kts | 224° |
| 2026-05-06 17:38 | 43.65621 | 7.21549 | 28 ft | 143 kts | 225° |
| 2026-05-06 17:39 | 43.64873 | 7.20527 | 542 ft | 150 kts | 224° |
| 2026-05-06 17:39 | 43.64120 | 7.19534 | 1306 ft | 150 kts | 223° |
| 2026-05-06 17:39 | 43.63336 | 7.18486 | 1850 ft | 165 kts | 226° |
| 2026-05-06 17:39 | 43.62475 | 7.17323 | 2306 ft | 182 kts | 227° |
| 2026-05-06 17:40 | 43.61541 | 7.16031 | 2730 ft | 198 kts | 227° |
| 2026-05-06 17:40 | 43.60315 | 7.15009 | 3230 ft | 220 kts | 191° |
| 2026-05-06 17:40 | 43.58785 | 7.15386 | 4072 ft | 234 kts | 155° |
| 2026-05-06 17:40 | 43.57402 | 7.16624 | 4911 ft | 238 kts | 146° |
| 2026-05-06 17:41 | 43.56385 | 7.18440 | 5723 ft | 246 kts | 111° |
| 2026-05-06 17:41 | 43.56145 | 7.20732 | 6628 ft | 246 kts | 85° |
| 2026-05-06 17:41 | 43.56572 | 7.23032 | 7292 ft | 253 kts | 71° |
| 2026-05-06 17:41 | 43.57126 | 7.25355 | 8054 ft | 257 kts | 70° |
| 2026-05-06 17:42 | 43.58032 | 7.27456 | 8851 ft | 257 kts | 41° |
| 2026-05-06 17:42 | 43.59534 | 7.28744 | 9570 ft | 255 kts | 12° |
| 2026-05-06 17:42 | 43.61323 | 7.28937 | 9958 ft | 268 kts | 344° |
| 2026-05-06 17:42 | 43.63086 | 7.27932 | 10274 ft | 285 kts | 327° |
| 2026-05-06 17:43 | 43.64897 | 7.26553 | 10564 ft | 309 kts | 327° |
| 2026-05-06 17:43 | 43.66836 | 7.25069 | 11003 ft | 325 kts | 327° |
| 2026-05-06 17:43 | 43.68839 | 7.23545 | 11734 ft | 332 kts | 328° |
| 2026-05-06 17:43 | 43.70888 | 7.21995 | 12536 ft | 336 kts | 328° |
| 2026-05-06 17:44 | 43.72926 | 7.20462 | 13327 ft | 340 kts | 328° |
| 2026-05-06 17:44 | 43.75022 | 7.18891 | 14043 ft | 345 kts | 328° |
| 2026-05-06 17:44 | 43.77170 | 7.17279 | 14712 ft | 349 kts | 328° |
| 2026-05-06 17:44 | 43.79317 | 7.15663 | 15364 ft | 353 kts | 327° |
| 2026-05-06 17:45 | 43.81476 | 7.14036 | 16105 ft | 354 kts | 327° |
| 2026-05-06 17:45 | 43.83620 | 7.12415 | 16813 ft | 357 kts | 327° |
| 2026-05-06 17:45 | 43.85839 | 7.10734 | 17475 ft | 361 kts | 327° |
| 2026-05-06 17:45 | 43.88054 | 7.09058 | 18155 ft | 364 kts | 327° |
| 2026-05-06 17:46 | 43.90288 | 7.07365 | 18730 ft | 368 kts | 326° |
| 2026-05-06 17:46 | 43.92547 | 7.05652 | 19288 ft | 372 kts | 326° |
| 2026-05-06 17:46 | 43.94826 | 7.03922 | 19887 ft | 375 kts | 325° |
| 2026-05-06 17:46 | 43.97130 | 7.02170 | 20432 ft | 380 kts | 324° |
| 2026-05-06 17:47 | 43.99466 | 7.00390 | 20971 ft | 385 kts | 324° |
| 2026-05-06 17:47 | 44.01824 | 6.98587 | 21581 ft | 389 kts | 324° |
| 2026-05-06 17:47 | 44.04210 | 6.96762 | 22080 ft | 392 kts | 323° |
| 2026-05-06 17:47 | 44.06620 | 6.94923 | 22538 ft | 397 kts | 323° |
| 2026-05-06 17:48 | 44.09051 | 6.93075 | 22995 ft | 401 kts | 323° |
| 2026-05-06 17:48 | 44.11510 | 6.91206 | 23491 ft | 405 kts | 323° |
| 2026-05-06 17:48 | 44.14083 | 6.89590 | 23789 ft | 418 kts | 333° |
| 2026-05-06 17:48 | 44.16940 | 6.88626 | 23859 ft | 425 kts | 345° |
| 2026-05-06 17:49 | 44.19839 | 6.88206 | 23875 ft | 414 kts | 346° |
| 2026-05-06 17:49 | 44.22694 | 6.87803 | 23883 ft | 409 kts | 346° |
| 2026-05-06 17:49 | 44.25515 | 6.87387 | 23876 ft | 407 kts | 346° |
| 2026-05-06 17:49 | 44.28320 | 6.86963 | 23869 ft | 405 kts | 346° |
| 2026-05-06 17:50 | 44.31120 | 6.86531 | 23870 ft | 405 kts | 346° |
| 2026-05-06 17:50 | 44.33920 | 6.86095 | 23870 ft | 405 kts | 346° |
| 2026-05-06 17:50 | 44.36722 | 6.85663 | 23876 ft | 406 kts | 346° |
| 2026-05-06 17:50 | 44.39528 | 6.85234 | 23866 ft | 406 kts | 346° |
| 2026-05-06 17:51 | 44.42334 | 6.84807 | 23888 ft | 405 kts | 347° |
| 2026-05-06 17:51 | 44.45138 | 6.84382 | 23882 ft | 404 kts | 347° |
| 2026-05-06 17:51 | 44.47928 | 6.83959 | 23918 ft | 401 kts | 348° |
| 2026-05-06 17:51 | 44.50671 | 6.83547 | 23904 ft | 394 kts | 348° |
| 2026-05-06 17:52 | 44.53392 | 6.83132 | 23897 ft | 393 kts | 348° |
| 2026-05-06 17:52 | 44.56101 | 6.82716 | 23896 ft | 392 kts | 348° |
| 2026-05-06 17:52 | 44.58812 | 6.82300 | 23897 ft | 392 kts | 348° |
| 2026-05-06 17:52 | 44.61527 | 6.81883 | 23893 ft | 392 kts | 348° |
| 2026-05-06 17:53 | 44.64233 | 6.81469 | 23895 ft | 391 kts | 348° |
| 2026-05-06 17:53 | 44.66940 | 6.81055 | 23886 ft | 390 kts | 348° |
| 2026-05-06 17:53 | 44.69642 | 6.80641 | 23887 ft | 391 kts | 348° |
| 2026-05-06 17:53 | 44.72349 | 6.80228 | 23879 ft | 391 kts | 348° |
| 2026-05-06 17:54 | 44.75054 | 6.79815 | 23880 ft | 392 kts | 348° |
| 2026-05-06 17:54 | 44.77768 | 6.79398 | 23880 ft | 392 kts | 348° |
| 2026-05-06 17:54 | 44.80478 | 6.78988 | 23897 ft | 392 kts | 349° |
| 2026-05-06 17:54 | 44.83201 | 6.78692 | 23892 ft | 393 kts | 351° |
| 2026-05-06 17:55 | 44.85928 | 6.78504 | 23892 ft | 393 kts | 352° |
| 2026-05-06 17:55 | 44.88660 | 6.78368 | 23897 ft | 393 kts | 353° |
| 2026-05-06 17:55 | 44.91397 | 6.78243 | 23893 ft | 393 kts | 353° |
| 2026-05-06 17:55 | 44.94127 | 6.78109 | 23887 ft | 392 kts | 352° |
| 2026-05-06 17:56 | 44.96853 | 6.77957 | 23894 ft | 392 kts | 352° |
| 2026-05-06 17:56 | 44.99577 | 6.77787 | 23903 ft | 392 kts | 352° |
| 2026-05-06 17:56 | 45.02295 | 6.77606 | 23898 ft | 391 kts | 352° |
| 2026-05-06 17:56 | 45.05015 | 6.77420 | 23896 ft | 391 kts | 352° |
| 2026-05-06 17:57 | 45.07729 | 6.77229 | 23904 ft | 391 kts | 352° |
| 2026-05-06 17:57 | 45.10443 | 6.77037 | 23899 ft | 391 kts | 352° |
| 2026-05-06 17:57 | 45.13162 | 6.76850 | 23916 ft | 391 kts | 352° |
| 2026-05-06 17:57 | 45.15882 | 6.76670 | 23914 ft | 391 kts | 352° |
| 2026-05-06 17:58 | 45.18591 | 6.76495 | 23938 ft | 390 kts | 353° |
| 2026-05-06 17:58 | 45.21302 | 6.76320 | 23931 ft | 390 kts | 353° |
| 2026-05-06 17:58 | 45.24011 | 6.76143 | 23927 ft | 390 kts | 353° |
| 2026-05-06 17:58 | 45.26719 | 6.75963 | 23930 ft | 390 kts | 353° |
| 2026-05-06 17:59 | 45.29390 | 6.75782 | 23921 ft | 389 kts | 353° |
| 2026-05-06 17:59 | 45.32092 | 6.75597 | 23916 ft | 389 kts | 352° |
| 2026-05-06 17:59 | 45.34758 | 6.75104 | 23925 ft | 384 kts | 344° |
| 2026-05-06 17:59 | 45.37380 | 6.74393 | 23925 ft | 384 kts | 344° |
| 2026-05-06 18:00 | 45.40012 | 6.73671 | 23937 ft | 385 kts | 345° |
| 2026-05-06 18:00 | 45.42641 | 6.72952 | 23936 ft | 385 kts | 345° |
| 2026-05-06 18:00 | 45.45274 | 6.72238 | 23932 ft | 385 kts | 345° |
| 2026-05-06 18:00 | 45.47907 | 6.71525 | 23932 ft | 385 kts | 345° |
| 2026-05-06 18:01 | 45.50538 | 6.70809 | 23930 ft | 385 kts | 345° |
| 2026-05-06 18:01 | 45.53166 | 6.70091 | 23939 ft | 385 kts | 345° |
| 2026-05-06 18:01 | 45.55797 | 6.69386 | 23944 ft | 385 kts | 345° |
| 2026-05-06 18:01 | 45.58431 | 6.68701 | 23951 ft | 385 kts | 346° |
| 2026-05-06 18:02 | 45.60178 | 6.68254 | 23947 ft | 385 kts | 346° |
| 2026-05-06 18:02 | 45.62817 | 6.67587 | 23947 ft | 385 kts | 346° |
| 2026-05-06 18:02 | 45.65452 | 6.66922 | 23946 ft | 384 kts | 346° |
| 2026-05-06 18:02 | 45.68084 | 6.66248 | 23962 ft | 384 kts | 346° |
| 2026-05-06 18:03 | 45.70715 | 6.65566 | 23966 ft | 384 kts | 346° |
| 2026-05-06 18:03 | 45.73335 | 6.64884 | 23965 ft | 382 kts | 346° |
| 2026-05-06 18:03 | 45.75966 | 6.64193 | 23951 ft | 391 kts | 346° |
| 2026-05-06 18:03 | 45.78672 | 6.63462 | 23948 ft | 398 kts | 346° |
| 2026-05-06 18:04 | 45.81401 | 6.62717 | 23944 ft | 400 kts | 346° |
| 2026-05-06 18:04 | 45.84141 | 6.61969 | 23942 ft | 401 kts | 346° |
| 2026-05-06 18:04 | 45.86866 | 6.61225 | 23923 ft | 395 kts | 346° |
| 2026-05-06 18:04 | 45.89533 | 6.60504 | 23614 ft | 386 kts | 346° |
| 2026-05-06 18:05 | 45.92155 | 6.59796 | 23138 ft | 381 kts | 346° |
| 2026-05-06 18:05 | 45.94749 | 6.59093 | 22630 ft | 377 kts | 346° |
| 2026-05-06 18:05 | 45.97313 | 6.58398 | 22123 ft | 374 kts | 346° |
| 2026-05-06 18:05 | 45.99867 | 6.57703 | 21600 ft | 372 kts | 347° |
| 2026-05-06 18:06 | 46.02387 | 6.56916 | 21128 ft | 368 kts | 339° |
| 2026-05-06 18:06 | 46.04681 | 6.55375 | 20691 ft | 361 kts | 324° |
| 2026-05-06 18:06 | 46.06576 | 6.53066 | 20239 ft | 355 kts | 309° |
| 2026-05-06 18:06 | 46.08028 | 6.50222 | 19767 ft | 351 kts | 302° |
| 2026-05-06 18:07 | 46.09395 | 6.47313 | 19323 ft | 349 kts | 302° |
| 2026-05-06 18:07 | 46.10754 | 6.44428 | 18911 ft | 348 kts | 302° |
| 2026-05-06 18:07 | 46.12109 | 6.41550 | 18508 ft | 346 kts | 302° |
| 2026-05-06 18:07 | 46.13445 | 6.38710 | 17838 ft | 340 kts | 302° |
| 2026-05-06 18:08 | 46.14774 | 6.35890 | 16889 ft | 340 kts | 303° |
| 2026-05-06 18:08 | 46.16112 | 6.33080 | 15952 ft | 340 kts | 305° |
| 2026-05-06 18:08 | 46.17837 | 6.30764 | 15021 ft | 343 kts | 329° |
| 2026-05-06 18:08 | 46.20094 | 6.29794 | 14539 ft | 337 kts | 355° |
| 2026-05-06 18:09 | 46.22363 | 6.30256 | 14170 ft | 328 kts | 20° |
| 2026-05-06 18:09 | 46.24246 | 6.31997 | 13763 ft | 321 kts | 42° |
| 2026-05-06 18:09 | 46.25822 | 6.34252 | 13152 ft | 318 kts | 44° |
| 2026-05-06 18:09 | 46.27360 | 6.36524 | 12540 ft | 314 kts | 45° |
| 2026-05-06 18:10 | 46.28875 | 6.38783 | 11941 ft | 311 kts | 45° |
| 2026-05-06 18:10 | 46.30375 | 6.41020 | 11348 ft | 309 kts | 45° |
| 2026-05-06 18:10 | 46.31873 | 6.43249 | 10775 ft | 312 kts | 45° |
| 2026-05-06 18:10 | 46.33389 | 6.45502 | 10204 ft | 310 kts | 45° |
| 2026-05-06 18:11 | 46.34883 | 6.47719 | 9622 ft | 305 kts | 45° |
| 2026-05-06 18:11 | 46.36356 | 6.49895 | 9007 ft | 300 kts | 45° |
| 2026-05-06 18:11 | 46.37803 | 6.52043 | 8404 ft | 296 kts | 45° |
| 2026-05-06 18:11 | 46.39243 | 6.54130 | 7821 ft | 290 kts | 38° |
| 2026-05-06 18:12 | 46.41036 | 6.55400 | 7359 ft | 286 kts | 8° |
| 2026-05-06 18:12 | 46.42976 | 6.55319 | 6999 ft | 276 kts | 340° |
| 2026-05-06 18:12 | 46.44586 | 6.54064 | 6917 ft | 253 kts | 314° |
| 2026-05-06 18:12 | 46.45605 | 6.52154 | 6922 ft | 230 kts | 291° |
| 2026-05-06 18:13 | 46.46053 | 6.49992 | 6926 ft | 222 kts | 279° |
| 2026-05-06 18:13 | 46.46376 | 6.47839 | 6928 ft | 221 kts | 276° |
| 2026-05-06 18:13 | 46.46365 | 6.45621 | 6928 ft | 217 kts | 256° |
| 2026-05-06 18:13 | 46.45849 | 6.43689 | 6932 ft | 215 kts | 237° |
| 2026-05-06 18:14 | 46.44886 | 6.42044 | 6929 ft | 215 kts | 226° |
| 2026-05-06 18:14 | 46.43839 | 6.40491 | 6928 ft | 215 kts | 226° |
| 2026-05-06 18:14 | 46.42793 | 6.38936 | 6928 ft | 216 kts | 226° |
| 2026-05-06 18:14 | 46.41725 | 6.37351 | 6571 ft | 225 kts | 226° |
| 2026-05-06 18:15 | 46.40630 | 6.35727 | 5965 ft | 226 kts | 226° |
| 2026-05-06 18:15 | 46.39543 | 6.34116 | 5511 ft | 221 kts | 226° |
| 2026-05-06 18:15 | 46.38471 | 6.32527 | 5197 ft | 221 kts | 226° |
| 2026-05-06 18:15 | 46.37402 | 6.30945 | 4885 ft | 217 kts | 225° |
| 2026-05-06 18:16 | 46.36369 | 6.29416 | 4599 ft | 209 kts | 226° |
| 2026-05-06 18:16 | 46.35372 | 6.27942 | 4331 ft | 199 kts | 225° |
| 2026-05-06 18:16 | 46.34444 | 6.26570 | 4054 ft | 182 kts | 226° |
| 2026-05-06 18:16 | 46.33579 | 6.25292 | 3816 ft | 174 kts | 225° |
| 2026-05-06 18:17 | 46.32759 | 6.24081 | 3593 ft | 163 kts | 225° |
| 2026-05-06 18:17 | 46.31986 | 6.22941 | 3395 ft | 152 kts | 226° |
| 2026-05-06 18:17 | 46.31278 | 6.21897 | 3187 ft | 140 kts | 226° |
| 2026-05-06 18:17 | 46.30606 | 6.20905 | 2989 ft | 136 kts | 225° |
| 2026-05-06 18:18 | 46.29940 | 6.19924 | 2797 ft | 137 kts | 225° |
| 2026-05-06 18:18 | 46.29282 | 6.18954 | 2595 ft | 139 kts | 226° |
| 2026-05-06 18:18 | 46.28605 | 6.17966 | 2435 ft | 137 kts | 225° |
| 2026-05-06 18:18 | 46.27942 | 6.16986 | 2216 ft | 136 kts | 226° |
| 2026-05-06 18:19 | 46.27276 | 6.16003 | 2023 ft | 137 kts | 226° |
| 2026-05-06 18:19 | 46.26610 | 6.15025 | 1850 ft | 135 kts | 226° |
| 2026-05-06 18:19 | 46.25946 | 6.14048 | 1649 ft | 136 kts | 227° |
| 2026-05-06 18:19 | 46.25282 | 6.13080 | 1497 ft | 135 kts | 227° |
| 2026-05-06 18:20 | 46.24634 | 6.12114 | 1372 ft | 125 kts | 225° |
| 2026-05-06 18:20 | 46.24146 | 6.11390 | 1374 ft | 76 kts | 226° |
| 2026-05-06 18:20 | 46.23920 | 6.11078 | 1375 ft | 24 kts | 205° |
| 2026-05-06 18:20 | 46.23776 | 6.11085 | 1380 ft | 19 kts | 169° |
| 2026-05-06 18:21 | 46.23683 | 6.11045 | 1386 ft | 12 kts | 223° |
| 2026-05-06 18:21 | 46.23624 | 6.10960 | 1387 ft | 12 kts | 225° |
| 2026-05-06 18:21 | 46.23561 | 6.10869 | 1388 ft | 11 kts | 225° |
| 2026-05-06 18:21 | 46.23512 | 6.10796 | 1389 ft | 10 kts | 226° |
| 2026-05-06 18:22 | 46.23469 | 6.10732 | 1388 ft | 8 kts | 226° |
| 2026-05-06 18:22 | 46.23422 | 6.10695 | 1395 ft | 7 kts | 162° |
| 2026-05-06 18:22 | 46.23397 | 6.10732 | 1396 ft | 4 kts | 134° |
| 2026-05-06 18:22 | 46.23372 | 6.10767 | 1397 ft | 8 kts | 136° |
| 2026-05-06 18:23 | 46.23346 | 6.10833 | 1395 ft | 7 kts | 76° |
| 2026-05-06 18:23 | 46.23380 | 6.10884 | 1398 ft | 9 kts | 41° |
| 2026-05-06 18:23 | 46.23428 | 6.10957 | 1397 ft | 8 kts | 64° |
| 2026-05-06 18:23 | 46.23411 | 6.10998 | 1400 ft | 4 kts | 138° |
| 2026-05-06 18:24 | 46.23390 | 6.11026 | 1400 ft | 3 kts | 136° |
| 2026-05-06 18:24 | 46.23382 | 6.11038 | 1396 ft | 0 kts | 135° |
| 2026-05-06 18:24 | 46.23381 | 6.11039 | 1396 ft | 0 kts | 135° |